createdAt,value
2017-03-14T00:00:39.739Z,22.6
2017-03-14T00:01:47.842Z,22.6
2017-03-14T00:02:55.923Z,22.6
2017-03-14T00:04:04.011Z,22.6
2017-03-14T00:05:12.099Z,22.6
2017-03-14T00:06:20.191Z,22.6
2017-03-14T00:07:28.281Z,22.7
2017-03-14T00:08:36.369Z,22.6
2017-03-14T00:09:44.456Z,22.6
2017-03-14T00:10:52.543Z,22.6
2017-03-14T00:12:00.633Z,22.6
2017-03-14T00:13:08.718Z,22.7
2017-03-14T00:14:16.808Z,22.6
2017-03-14T00:15:24.895Z,22.6
2017-03-14T00:16:32.992Z,22.6
2017-03-14T00:17:41.077Z,22.6
2017-03-14T00:18:49.168Z,22.7
2017-03-14T00:19:57.254Z,22.6
2017-03-14T00:21:05.341Z,22.6
2017-03-14T00:22:13.438Z,22.6
2017-03-14T00:23:21.523Z,22.6
2017-03-14T00:24:29.606Z,22.6
2017-03-14T00:25:37.700Z,22.6
2017-03-14T00:26:45.794Z,22.6
2017-03-14T00:27:53.875Z,22.7
2017-03-14T00:29:01.967Z,22.6
2017-03-14T00:30:10.053Z,22.6
2017-03-14T00:31:18.141Z,22.6
2017-03-14T00:32:26.226Z,22.7
2017-03-14T00:33:34.317Z,22.6
2017-03-14T00:34:42.405Z,22.7
2017-03-14T00:35:50.497Z,22.8
2017-03-14T00:36:58.583Z,22.6
2017-03-14T00:38:06.686Z,22.7
2017-03-14T00:39:14.764Z,22.7
2017-03-14T00:40:22.854Z,22.7
2017-03-14T00:41:30.945Z,22.8
2017-03-14T00:42:39.033Z,22.7
2017-03-14T00:43:47.116Z,22.8
2017-03-14T00:44:55.227Z,22.8
2017-03-14T00:46:03.292Z,22.8
2017-03-14T00:47:11.382Z,22.8
2017-03-14T00:48:19.466Z,22.8
2017-03-14T00:49:27.564Z,22.7
2017-03-14T00:50:35.648Z,22.8
2017-03-14T00:51:43.735Z,22.8
2017-03-14T00:52:51.821Z,22.8
2017-03-14T00:53:59.911Z,22.7
2017-03-14T00:55:07.999Z,22.8
2017-03-14T00:56:16.087Z,22.7
2017-03-14T00:57:24.176Z,22.7
2017-03-14T00:58:32.272Z,22.8
2017-03-14T00:59:40.363Z,22.7
2017-03-14T01:00:48.451Z,22.7
2017-03-14T01:01:56.551Z,22.8
2017-03-14T01:03:04.643Z,22.7
2017-03-14T01:04:12.729Z,22.7
2017-03-14T01:05:20.821Z,22.7
2017-03-14T01:06:28.905Z,22.7
2017-03-14T01:07:36.993Z,22.7
2017-03-14T01:08:45.085Z,22.7
2017-03-14T01:09:53.171Z,22.7
2017-03-14T01:11:01.263Z,22.7
2017-03-14T01:12:09.344Z,22.7
2017-03-14T01:13:17.439Z,22.8
2017-03-14T01:14:25.525Z,22.8
2017-03-14T01:15:33.609Z,22.8
2017-03-14T01:16:41.698Z,22.6
2017-03-14T01:17:49.788Z,22.8
2017-03-14T01:18:57.872Z,22.7
2017-03-14T01:20:05.961Z,22.7
2017-03-14T01:21:14.054Z,22.6
2017-03-14T01:22:22.140Z,22.7
2017-03-14T01:23:30.231Z,22.6
2017-03-14T01:24:38.317Z,22.7
2017-03-14T01:25:46.401Z,22.6
2017-03-14T01:26:54.489Z,22.6
2017-03-14T01:28:02.575Z,22.6
2017-03-14T01:29:10.672Z,22.6
2017-03-14T01:30:18.761Z,22.6
2017-03-14T01:31:26.845Z,22.6
2017-03-14T01:32:34.936Z,22.6
2017-03-14T01:33:43.026Z,22.6
2017-03-14T01:34:51.114Z,22.6
2017-03-14T01:35:59.198Z,22.6
2017-03-14T01:37:07.293Z,22.6
2017-03-14T01:38:15.383Z,22.6
2017-03-14T01:39:23.465Z,22.6
2017-03-14T01:40:31.556Z,22.6
2017-03-14T01:41:39.649Z,22.7
2017-03-14T01:42:47.731Z,22.6
2017-03-14T01:43:55.819Z,22.6
2017-03-14T01:45:03.916Z,22.6
2017-03-14T01:46:12.003Z,22.6
2017-03-14T01:47:20.096Z,22.6
2017-03-14T01:48:28.185Z,22.6
2017-03-14T01:49:36.273Z,22.6
2017-03-14T01:50:44.361Z,22.6
2017-03-14T01:51:52.450Z,22.6
2017-03-14T01:53:00.539Z,22.5
2017-03-14T01:54:08.631Z,22.5
2017-03-14T01:55:16.721Z,22.6
2017-03-14T01:56:24.868Z,22.5
2017-03-14T01:57:32.906Z,22.5
2017-03-14T01:58:40.990Z,22.6
2017-03-14T01:59:49.078Z,22.5
2017-03-14T02:00:57.164Z,22.5
2017-03-14T02:02:05.251Z,22.4
2017-03-14T02:03:13.334Z,22.4
2017-03-14T02:04:21.434Z,22.5
2017-03-14T02:05:29.520Z,22.4
2017-03-14T02:06:37.604Z,22.4
2017-03-14T02:07:45.694Z,22.4
2017-03-14T02:08:53.784Z,22.3
2017-03-14T02:10:01.875Z,22.4
2017-03-14T02:11:09.958Z,22.4
2017-03-14T02:12:18.045Z,22.3
2017-03-14T02:13:26.211Z,22.4
2017-03-14T02:14:34.221Z,22.3
2017-03-14T02:15:42.311Z,22.3
2017-03-14T02:16:50.396Z,22.3
2017-03-14T02:17:58.485Z,22.3
2017-03-14T02:19:06.578Z,22.3
2017-03-14T02:20:14.674Z,22.3
2017-03-14T02:21:22.765Z,22.3
2017-03-14T02:22:30.851Z,22.3
2017-03-14T02:23:38.941Z,22.2
2017-03-14T02:24:47.030Z,22.2
2017-03-14T02:25:55.122Z,22.1
2017-03-14T02:27:03.205Z,22.3
2017-03-14T02:28:11.298Z,22.2
2017-03-14T02:29:19.387Z,22.2
2017-03-14T02:30:27.546Z,22.2
2017-03-14T02:31:35.569Z,22.2
2017-03-14T02:32:43.667Z,22.2
2017-03-14T02:33:51.752Z,22.1
2017-03-14T02:34:59.839Z,22.1
2017-03-14T02:36:07.928Z,22.1
2017-03-14T02:37:16.024Z,22.1
2017-03-14T02:38:24.106Z,22.1
2017-03-14T02:39:32.199Z,22.1
2017-03-14T02:40:40.286Z,22.1
2017-03-14T02:41:48.368Z,22.0
2017-03-14T02:42:56.467Z,22.1
2017-03-14T02:44:04.555Z,22.0
2017-03-14T02:45:12.637Z,22.0
2017-03-14T02:46:20.721Z,22.0
2017-03-14T02:47:28.814Z,22.0
2017-03-14T02:48:36.903Z,21.9
2017-03-14T02:49:44.994Z,21.9
2017-03-14T02:50:53.077Z,21.9
2017-03-14T02:52:01.166Z,21.9
2017-03-14T02:53:09.251Z,21.9
2017-03-14T02:54:17.340Z,21.9
2017-03-14T02:55:25.432Z,21.9
2017-03-14T02:56:33.521Z,21.9
2017-03-14T02:57:41.609Z,21.9
2017-03-14T02:58:49.691Z,21.8
2017-03-14T02:59:57.781Z,21.8
2017-03-14T03:01:05.868Z,21.8
2017-03-14T03:02:13.951Z,21.8
2017-03-14T03:03:22.047Z,21.8
2017-03-14T03:04:30.136Z,21.8
2017-03-14T03:05:38.222Z,21.8
2017-03-14T03:06:46.311Z,21.8
2017-03-14T03:07:54.399Z,21.8
2017-03-14T03:09:02.482Z,21.7
2017-03-14T03:10:10.566Z,21.7
2017-03-14T03:11:18.657Z,21.7
2017-03-14T03:12:26.742Z,21.7
2017-03-14T03:13:34.830Z,21.7
2017-03-14T03:14:42.917Z,21.7
2017-03-14T03:15:51.003Z,21.7
2017-03-14T03:16:59.086Z,21.6
2017-03-14T03:18:07.171Z,21.7
2017-03-14T03:19:15.260Z,21.6
2017-03-14T03:20:23.345Z,21.6
2017-03-14T03:21:31.429Z,21.6
2017-03-14T03:22:39.519Z,21.7
2017-03-14T03:23:47.605Z,21.7
2017-03-14T03:24:55.691Z,21.6
2017-03-14T03:26:03.785Z,21.6
2017-03-14T03:27:11.871Z,21.6
2017-03-14T03:28:19.960Z,21.6
2017-03-14T03:29:28.045Z,21.6
2017-03-14T03:30:36.139Z,21.6
2017-03-14T03:31:44.232Z,21.6
2017-03-14T03:32:52.311Z,21.5
2017-03-14T03:34:00.393Z,21.5
2017-03-14T03:35:08.493Z,21.5
2017-03-14T03:36:16.576Z,21.5
2017-03-14T03:37:24.658Z,21.5
2017-03-14T03:38:32.750Z,21.5
2017-03-14T03:39:40.838Z,21.4
2017-03-14T03:40:48.924Z,21.4
2017-03-14T03:41:57.008Z,21.4
2017-03-14T03:43:05.097Z,21.4
2017-03-14T03:44:13.184Z,21.4
2017-03-14T03:45:21.266Z,21.4
2017-03-14T03:46:29.357Z,21.3
2017-03-14T03:47:37.447Z,21.3
2017-03-14T03:48:45.530Z,21.3
2017-03-14T03:49:53.621Z,21.4
2017-03-14T03:51:01.710Z,21.3
2017-03-14T03:52:09.795Z,21.3
2017-03-14T03:53:17.881Z,21.4
2017-03-14T03:54:25.978Z,21.3
2017-03-14T03:55:34.068Z,21.3
2017-03-14T03:56:42.148Z,21.2
2017-03-14T03:57:50.231Z,21.2
2017-03-14T03:58:58.323Z,21.1
2017-03-14T04:00:06.405Z,21.1
2017-03-14T04:01:14.491Z,21.2
2017-03-14T04:02:22.580Z,21.1
2017-03-14T04:03:30.669Z,21.1
2017-03-14T04:04:38.755Z,21.0
2017-03-14T04:05:46.853Z,21.0
2017-03-14T04:06:54.924Z,21.1
2017-03-14T04:08:03.011Z,21.1
2017-03-14T04:09:11.094Z,21.0
2017-03-14T04:10:19.182Z,21.0
2017-03-14T04:11:27.267Z,21.1
2017-03-14T04:12:35.355Z,21.0
2017-03-14T04:13:43.445Z,21.0
2017-03-14T04:14:51.527Z,21.0
2017-03-14T04:15:59.613Z,21.1
2017-03-14T04:17:07.703Z,21.0
2017-03-14T04:18:15.800Z,21.0
2017-03-14T04:19:23.884Z,20.9
2017-03-14T04:20:31.966Z,20.9
2017-03-14T04:21:40.056Z,20.9
2017-03-14T04:22:48.143Z,20.9
2017-03-14T04:23:56.235Z,20.9
2017-03-14T04:25:04.316Z,20.9
2017-03-14T04:26:12.406Z,20.8
2017-03-14T04:27:20.491Z,20.9
2017-03-14T04:28:28.576Z,20.8
2017-03-14T04:29:36.665Z,20.8
2017-03-14T04:30:44.755Z,20.8
2017-03-14T04:31:52.838Z,20.9
2017-03-14T04:33:00.929Z,20.8
2017-03-14T04:34:09.019Z,20.7
2017-03-14T04:35:17.111Z,20.8
2017-03-14T04:36:25.195Z,20.7
2017-03-14T04:37:33.291Z,20.7
2017-03-14T04:38:41.382Z,20.7
2017-03-14T04:39:49.462Z,20.7
2017-03-14T04:40:57.553Z,20.7
2017-03-14T04:42:05.716Z,20.7
2017-03-14T04:43:13.728Z,20.7
2017-03-14T04:44:21.809Z,20.6
2017-03-14T04:45:29.901Z,20.6
2017-03-14T04:46:37.985Z,20.6
2017-03-14T04:47:46.071Z,20.6
2017-03-14T04:48:54.162Z,20.5
2017-03-14T04:50:02.242Z,20.5
2017-03-14T04:51:10.325Z,20.5
2017-03-14T04:52:18.405Z,20.6
2017-03-14T04:53:26.496Z,20.5
2017-03-14T04:54:34.587Z,20.5
2017-03-14T04:55:42.670Z,20.5
2017-03-14T04:56:50.756Z,20.4
2017-03-14T04:57:58.845Z,20.5
2017-03-14T04:59:07.007Z,20.5
2017-03-14T05:00:15.024Z,20.5
2017-03-14T05:01:23.107Z,20.4
2017-03-14T05:02:31.194Z,20.5
2017-03-14T05:03:39.277Z,20.4
2017-03-14T05:04:47.361Z,20.4
2017-03-14T05:05:55.457Z,20.4
2017-03-14T05:07:03.536Z,20.4
2017-03-14T05:08:11.621Z,20.4
2017-03-14T05:09:19.711Z,20.4
2017-03-14T05:10:27.798Z,20.4
2017-03-14T05:11:35.882Z,20.3
2017-03-14T05:12:43.967Z,20.3
2017-03-14T05:13:52.053Z,20.3
2017-03-14T05:15:00.136Z,20.2
2017-03-14T05:16:08.312Z,20.2
2017-03-14T05:17:16.313Z,20.3
2017-03-14T05:18:24.401Z,20.1
2017-03-14T05:19:32.481Z,20.3
2017-03-14T05:20:40.566Z,20.1
2017-03-14T05:21:48.656Z,20.2
2017-03-14T05:22:56.752Z,20.1
2017-03-14T05:24:04.834Z,20.2
2017-03-14T05:25:12.918Z,20.1
2017-03-14T05:26:21.009Z,20.1
2017-03-14T05:27:29.091Z,20.1
2017-03-14T05:28:37.183Z,20.0
2017-03-14T05:29:45.262Z,20.1
2017-03-14T05:30:53.343Z,20.2
2017-03-14T05:32:01.428Z,20.1
2017-03-14T05:33:09.526Z,20.1
2017-03-14T05:34:17.609Z,20.0
2017-03-14T05:35:25.696Z,20.0
2017-03-14T05:36:33.780Z,20.1
2017-03-14T05:37:41.867Z,20.1
2017-03-14T05:38:49.953Z,19.9
2017-03-14T05:39:58.034Z,20.0
2017-03-14T05:41:06.122Z,20.0
2017-03-14T05:42:14.206Z,20.0
2017-03-14T05:43:22.289Z,20.0
2017-03-14T05:44:30.381Z,19.9
2017-03-14T05:45:38.465Z,19.9
2017-03-14T05:46:46.552Z,19.9
2017-03-14T05:47:54.631Z,19.9
2017-03-14T05:49:02.720Z,19.9
2017-03-14T05:50:10.810Z,19.9
2017-03-14T05:51:18.889Z,19.9
2017-03-14T05:52:26.974Z,19.9
2017-03-14T05:53:35.062Z,19.8
2017-03-14T05:54:43.145Z,19.8
2017-03-14T05:55:51.227Z,19.7
2017-03-14T05:56:59.317Z,19.7
2017-03-14T05:58:07.407Z,19.7
2017-03-14T05:59:15.487Z,19.7
2017-03-14T06:00:23.575Z,19.8
2017-03-14T06:01:31.660Z,19.8
2017-03-14T06:02:39.739Z,19.7
2017-03-14T06:03:47.826Z,19.7
2017-03-14T06:04:55.920Z,19.7
2017-03-14T06:06:03.999Z,19.7
2017-03-14T06:07:12.085Z,19.7
2017-03-14T06:08:20.182Z,19.7
2017-03-14T06:09:28.264Z,19.7
2017-03-14T06:10:36.352Z,19.7
2017-03-14T06:11:44.436Z,19.6
2017-03-14T06:12:52.542Z,19.6
2017-03-14T06:14:00.611Z,19.7
2017-03-14T06:15:08.695Z,19.7
2017-03-14T06:16:16.779Z,19.8
2017-03-14T06:17:24.864Z,19.6
2017-03-14T06:18:32.949Z,19.7
2017-03-14T06:19:41.041Z,19.7
2017-03-14T06:20:49.129Z,19.7
2017-03-14T06:21:57.213Z,19.6
2017-03-14T06:23:05.296Z,19.7
2017-03-14T06:24:13.384Z,19.6
2017-03-14T06:25:21.469Z,19.6
2017-03-14T06:26:29.549Z,19.7
2017-03-14T06:27:37.639Z,19.7
2017-03-14T06:28:45.733Z,19.7
2017-03-14T06:29:53.815Z,19.6
2017-03-14T06:31:01.921Z,19.7
2017-03-14T06:32:09.987Z,19.7
2017-03-14T06:33:18.086Z,19.7
2017-03-14T06:34:26.154Z,19.7
2017-03-14T06:35:34.245Z,19.7
2017-03-14T06:36:42.360Z,19.7
2017-03-14T06:37:50.420Z,19.7
2017-03-14T06:38:58.497Z,19.7
2017-03-14T06:40:06.591Z,19.8
2017-03-14T06:41:14.683Z,19.8
2017-03-14T06:42:22.770Z,19.9
2017-03-14T06:43:31.554Z,19.9
2017-03-14T06:44:38.945Z,19.9
2017-03-14T06:45:47.033Z,19.9
2017-03-14T06:46:55.114Z,19.9
2017-03-14T06:48:03.227Z,20.0
2017-03-14T06:49:11.298Z,20.0
2017-03-14T06:50:19.398Z,20.0
2017-03-14T06:51:27.469Z,19.9
2017-03-14T06:52:35.553Z,20.0
2017-03-14T06:53:43.642Z,20.0
2017-03-14T06:54:51.724Z,20.1
2017-03-14T06:55:59.812Z,20.1
2017-03-14T06:57:07.913Z,20.1
2017-03-14T06:58:16.003Z,20.1
2017-03-14T06:59:24.105Z,20.1
2017-03-14T07:00:32.198Z,20.1
2017-03-14T07:01:40.289Z,20.1
2017-03-14T07:02:48.376Z,20.1
2017-03-14T07:03:56.464Z,20.1
2017-03-14T07:05:04.549Z,20.3
2017-03-14T07:06:12.637Z,20.2
2017-03-14T07:07:20.723Z,20.2
2017-03-14T07:08:28.813Z,20.3
2017-03-14T07:09:36.900Z,20.3
2017-03-14T07:10:45.396Z,20.3
2017-03-14T07:11:53.075Z,20.3
2017-03-14T07:13:01.160Z,20.3
2017-03-14T07:14:09.246Z,20.4
2017-03-14T07:15:17.338Z,20.4
2017-03-14T07:16:25.431Z,20.5
2017-03-14T07:17:33.525Z,20.5
2017-03-14T07:18:41.614Z,20.4
2017-03-14T07:19:49.700Z,20.4
2017-03-14T07:20:57.789Z,20.5
2017-03-14T07:22:05.870Z,20.5
2017-03-14T07:23:13.962Z,20.4
2017-03-14T07:24:22.048Z,20.5
2017-03-14T07:25:30.140Z,20.6
2017-03-14T07:26:38.229Z,20.5
2017-03-14T07:27:46.315Z,20.5
2017-03-14T07:28:54.402Z,20.6
2017-03-14T07:30:02.486Z,20.6
2017-03-14T07:31:10.583Z,20.6
2017-03-14T07:32:18.671Z,20.6
2017-03-14T07:33:26.759Z,20.7
2017-03-14T07:34:34.848Z,20.7
2017-03-14T07:35:42.980Z,20.7
2017-03-14T07:36:51.023Z,20.6
2017-03-14T07:37:59.103Z,20.6
2017-03-14T07:39:07.196Z,20.7
2017-03-14T07:40:15.290Z,20.7
2017-03-14T07:41:23.365Z,20.7
2017-03-14T07:42:31.454Z,20.7
2017-03-14T07:43:39.540Z,20.7
2017-03-14T07:44:47.653Z,20.7
2017-03-14T07:45:55.712Z,20.8
2017-03-14T07:47:03.801Z,20.8
2017-03-14T07:48:11.889Z,20.8
2017-03-14T07:49:19.976Z,20.8
2017-03-14T07:50:28.070Z,20.9
2017-03-14T07:51:36.158Z,20.8
2017-03-14T07:52:44.236Z,20.9
2017-03-14T07:53:52.326Z,20.9
2017-03-14T07:55:00.418Z,20.9
2017-03-14T07:56:08.509Z,20.9
2017-03-14T07:57:16.590Z,20.9
2017-03-14T07:58:24.698Z,20.9
2017-03-14T07:59:32.770Z,20.9
2017-03-14T08:00:40.861Z,20.9
2017-03-14T08:01:49.034Z,20.9
2017-03-14T08:02:57.037Z,20.9
2017-03-14T08:04:05.129Z,21.0
2017-03-14T08:05:13.212Z,21.0
2017-03-14T08:06:21.302Z,20.9
2017-03-14T08:07:29.389Z,21.0
2017-03-14T08:08:37.472Z,21.0
2017-03-14T08:09:45.561Z,21.1
2017-03-14T08:10:53.651Z,21.1
2017-03-14T08:12:01.742Z,21.0
2017-03-14T08:13:09.831Z,21.0
2017-03-14T08:14:17.916Z,21.0
2017-03-14T08:15:26.009Z,21.0
2017-03-14T08:16:34.095Z,21.1
2017-03-14T08:17:42.189Z,21.1
2017-03-14T08:18:50.278Z,21.0
2017-03-14T08:19:58.364Z,21.1
2017-03-14T08:22:14.531Z,21.1
2017-03-14T08:23:22.626Z,21.0
2017-03-14T08:24:30.725Z,21.1
2017-03-14T08:25:38.796Z,21.1
2017-03-14T08:26:46.886Z,21.1
2017-03-14T08:27:54.974Z,21.0
2017-03-14T08:29:03.056Z,21.1
2017-03-14T08:30:11.149Z,21.0
2017-03-14T08:31:19.244Z,21.1
2017-03-14T08:32:27.332Z,21.2
2017-03-14T08:33:35.425Z,21.1
2017-03-14T08:34:43.511Z,21.2
2017-03-14T08:35:51.602Z,21.2
2017-03-14T08:36:59.687Z,21.2
2017-03-14T08:38:07.777Z,21.2
2017-03-14T08:39:15.862Z,21.2
2017-03-14T08:40:23.948Z,21.2
2017-03-14T08:41:32.040Z,21.2
2017-03-14T08:42:40.128Z,21.2
2017-03-14T08:43:48.210Z,21.3
2017-03-14T08:44:56.298Z,21.3
2017-03-14T08:46:04.388Z,21.3
2017-03-14T08:47:12.479Z,21.3
2017-03-14T08:48:20.566Z,21.3
2017-03-14T08:49:28.652Z,21.4
2017-03-14T08:50:36.740Z,21.4
2017-03-14T08:51:44.832Z,21.4
2017-03-14T08:52:53.052Z,21.4
2017-03-14T08:54:01.005Z,21.4
2017-03-14T08:55:09.093Z,21.4
2017-03-14T08:56:17.250Z,21.4
2017-03-14T08:57:25.269Z,21.4
2017-03-14T08:58:33.358Z,21.4
2017-03-14T08:59:41.448Z,21.4
2017-03-14T09:00:49.532Z,21.5
2017-03-14T09:01:57.629Z,21.6
2017-03-14T09:03:05.716Z,21.5
2017-03-14T09:04:13.800Z,21.6
2017-03-14T09:05:21.894Z,21.6
2017-03-14T09:06:29.982Z,21.6
2017-03-14T09:07:38.075Z,21.5
2017-03-14T09:08:46.160Z,21.6
2017-03-14T09:09:54.252Z,21.6
2017-03-14T09:11:02.337Z,21.6
2017-03-14T09:12:10.418Z,21.6
2017-03-14T09:13:18.516Z,21.6
2017-03-14T09:14:26.605Z,21.6
2017-03-14T09:15:34.690Z,21.7
2017-03-14T09:16:42.777Z,21.6
2017-03-14T09:17:50.874Z,21.6
2017-03-14T09:18:58.954Z,21.7
2017-03-14T09:20:07.041Z,21.6
2017-03-14T09:21:15.130Z,21.6
2017-03-14T09:22:23.223Z,21.6
2017-03-14T09:23:31.308Z,21.7
2017-03-14T09:24:39.393Z,21.7
2017-03-14T09:25:47.484Z,21.7
2017-03-14T09:26:55.574Z,21.7
2017-03-14T09:28:03.660Z,21.7
2017-03-14T09:29:11.750Z,21.8
2017-03-14T09:30:19.839Z,21.7
2017-03-14T09:31:27.928Z,21.7
2017-03-14T09:32:36.019Z,21.8
2017-03-14T09:33:44.108Z,21.8
2017-03-14T09:34:52.197Z,21.8
2017-03-14T09:36:00.283Z,21.8
2017-03-14T09:37:08.387Z,21.8
2017-03-14T09:38:16.461Z,21.8
2017-03-14T09:39:24.543Z,21.9
2017-03-14T09:40:32.635Z,21.8
2017-03-14T09:41:40.722Z,21.9
2017-03-14T09:42:48.812Z,21.9
2017-03-14T09:43:56.897Z,21.8
2017-03-14T09:45:04.999Z,22.0
2017-03-14T09:46:13.087Z,21.9
2017-03-14T09:47:21.182Z,21.9
2017-03-14T09:48:29.273Z,21.9
2017-03-14T09:49:37.358Z,22.0
2017-03-14T09:50:45.452Z,22.0
2017-03-14T09:51:53.536Z,22.0
2017-03-14T09:53:01.629Z,21.9
2017-03-14T09:54:09.716Z,22.0
2017-03-14T09:55:17.807Z,21.9
2017-03-14T09:56:25.897Z,22.0
2017-03-14T09:57:33.988Z,22.0
2017-03-14T09:58:42.075Z,22.1
2017-03-14T09:59:50.158Z,22.1
2017-03-14T10:00:58.246Z,22.1
2017-03-14T10:02:06.333Z,22.1
2017-03-14T10:03:14.419Z,22.0
2017-03-14T10:04:22.513Z,22.1
2017-03-14T10:05:30.598Z,22.0
2017-03-14T10:06:38.684Z,22.1
2017-03-14T10:07:46.773Z,22.1
2017-03-14T10:08:54.860Z,22.1
2017-03-14T10:10:02.947Z,22.1
2017-03-14T10:11:11.031Z,22.1
2017-03-14T10:12:19.121Z,22.1
2017-03-14T10:13:27.209Z,22.1
2017-03-14T10:14:35.295Z,22.1
2017-03-14T10:15:43.378Z,22.1
2017-03-14T10:16:51.474Z,22.1
2017-03-14T10:17:59.558Z,22.2
2017-03-14T10:19:07.646Z,22.1
2017-03-14T10:20:15.737Z,22.1
2017-03-14T10:21:23.824Z,22.2
2017-03-14T10:22:31.907Z,22.2
2017-03-14T10:23:39.992Z,22.1
2017-03-14T10:24:48.083Z,22.1
2017-03-14T10:25:56.173Z,22.2
2017-03-14T10:27:04.255Z,22.2
2017-03-14T10:28:12.348Z,22.2
2017-03-14T10:29:20.437Z,22.2
2017-03-14T10:30:28.556Z,22.2
2017-03-14T10:31:36.604Z,22.2
2017-03-14T10:32:44.697Z,22.2
2017-03-14T10:33:52.784Z,22.2
2017-03-14T10:35:01.268Z,22.2
2017-03-14T10:36:08.959Z,22.2
2017-03-14T10:37:17.046Z,22.2
2017-03-14T10:38:25.142Z,22.3
2017-03-14T10:39:33.228Z,22.2
2017-03-14T10:40:41.318Z,22.3
2017-03-14T10:41:49.402Z,22.2
2017-03-14T10:42:57.494Z,22.2
2017-03-14T10:44:05.583Z,22.3
2017-03-14T10:45:13.673Z,22.3
2017-03-14T10:46:21.758Z,22.2
2017-03-14T10:47:29.855Z,22.3
2017-03-14T10:48:37.939Z,22.3
2017-03-14T10:49:46.033Z,22.3
2017-03-14T10:50:54.110Z,22.3
2017-03-14T10:52:02.201Z,22.3
2017-03-14T10:53:10.291Z,22.3
2017-03-14T10:54:18.377Z,22.3
2017-03-14T10:55:26.466Z,22.3
2017-03-14T10:56:34.554Z,22.2
2017-03-14T10:57:42.642Z,22.3
2017-03-14T10:58:50.728Z,22.3
2017-03-14T10:59:58.820Z,22.3
2017-03-14T11:01:06.902Z,22.3
2017-03-14T11:02:14.989Z,22.3
2017-03-14T11:03:23.082Z,22.2
2017-03-14T11:04:31.172Z,22.3
2017-03-14T11:05:39.576Z,22.2
2017-03-14T11:06:47.421Z,22.3
2017-03-14T11:07:55.512Z,22.3
2017-03-14T11:09:03.520Z,22.3
2017-03-14T11:10:11.604Z,22.3
2017-03-14T11:11:19.696Z,22.3
2017-03-14T11:12:27.781Z,22.3
2017-03-14T11:13:35.870Z,22.2
2017-03-14T11:14:43.954Z,22.1
2017-03-14T11:15:52.051Z,22.2
2017-03-14T11:17:00.133Z,22.2
2017-03-14T11:18:08.221Z,22.2
2017-03-14T11:19:16.311Z,22.2
2017-03-14T11:20:24.400Z,22.2
2017-03-14T11:21:32.489Z,22.2
2017-03-14T11:22:40.571Z,22.2
2017-03-14T11:23:48.667Z,22.2
2017-03-14T11:24:56.762Z,22.2
2017-03-14T11:26:04.856Z,22.1
2017-03-14T11:27:12.942Z,22.1
2017-03-14T11:28:21.032Z,22.2
2017-03-14T11:29:29.120Z,22.1
2017-03-14T11:30:37.220Z,22.1
2017-03-14T11:31:45.306Z,22.1
2017-03-14T11:32:53.398Z,22.1
2017-03-14T11:34:01.482Z,22.1
2017-03-14T11:35:09.571Z,22.1
2017-03-14T11:36:17.664Z,22.1
2017-03-14T11:37:25.752Z,22.1
2017-03-14T11:38:33.843Z,22.1
2017-03-14T11:39:41.931Z,22.1
2017-03-14T11:40:50.019Z,22.0
2017-03-14T11:41:58.105Z,22.0
2017-03-14T11:43:06.196Z,22.0
2017-03-14T11:44:14.287Z,21.9
2017-03-14T11:45:22.364Z,21.9
2017-03-14T11:46:30.453Z,21.9
2017-03-14T11:47:38.553Z,21.9
2017-03-14T11:48:46.648Z,22.0
2017-03-14T11:49:54.732Z,22.0
2017-03-14T11:51:02.825Z,22.0
2017-03-14T11:52:10.914Z,21.9
2017-03-14T11:53:18.997Z,21.9
2017-03-14T11:54:27.085Z,21.9
2017-03-14T11:55:35.180Z,21.9
2017-03-14T11:56:43.269Z,21.9
2017-03-14T11:57:51.347Z,21.9
2017-03-14T11:58:59.438Z,21.9
2017-03-14T12:00:07.525Z,21.9
2017-03-14T12:01:15.612Z,21.9
2017-03-14T12:02:23.701Z,21.9
2017-03-14T12:03:31.789Z,21.8
2017-03-14T12:04:39.878Z,21.8
2017-03-14T12:05:47.961Z,21.8
2017-03-14T12:06:56.055Z,21.8
2017-03-14T12:08:04.139Z,21.8
2017-03-14T12:09:12.223Z,21.8
2017-03-14T12:10:20.319Z,21.8
2017-03-14T12:11:28.403Z,21.8
2017-03-14T12:12:36.489Z,21.8
2017-03-14T12:13:44.575Z,21.8
2017-03-14T12:14:52.666Z,21.8
2017-03-14T12:16:00.759Z,21.7
2017-03-14T12:17:08.842Z,21.7
2017-03-14T12:18:16.933Z,21.7
2017-03-14T12:19:25.019Z,21.8
2017-03-14T12:20:33.101Z,21.7
2017-03-14T12:21:41.198Z,21.7
2017-03-14T12:22:49.289Z,21.7
2017-03-14T12:23:57.375Z,21.7
2017-03-14T12:25:05.470Z,21.7
2017-03-14T12:26:13.563Z,21.7
2017-03-14T12:27:21.649Z,21.6
2017-03-14T12:28:29.888Z,21.7
2017-03-14T12:29:37.828Z,21.7
2017-03-14T12:30:45.912Z,21.7
2017-03-14T12:31:53.998Z,21.6
2017-03-14T12:33:02.078Z,21.6
2017-03-14T12:34:10.741Z,21.7
2017-03-14T12:35:18.256Z,21.7
2017-03-14T12:36:26.852Z,21.6
2017-03-14T12:37:34.970Z,21.7
2017-03-14T12:38:42.599Z,21.6
2017-03-14T12:39:50.886Z,21.7
2017-03-14T12:40:58.687Z,21.6
2017-03-14T12:42:06.784Z,21.6
2017-03-14T12:43:15.182Z,21.8
2017-03-14T12:44:22.949Z,21.6
2017-03-14T12:45:31.048Z,21.6
2017-03-14T12:46:39.143Z,21.6
2017-03-14T12:47:47.475Z,21.7
2017-03-14T12:48:55.361Z,21.6
2017-03-14T12:50:03.409Z,21.6
2017-03-14T12:51:12.128Z,21.6
2017-03-14T12:52:19.845Z,21.6
2017-03-14T12:53:27.835Z,21.6
2017-03-14T12:54:36.022Z,21.6
2017-03-14T12:55:44.450Z,21.6
2017-03-14T12:56:51.938Z,21.6
2017-03-14T12:58:00.375Z,21.5
2017-03-14T12:59:08.146Z,21.6
2017-03-14T13:00:16.475Z,21.6
2017-03-14T13:01:24.622Z,21.5
2017-03-14T13:02:32.488Z,21.6
2017-03-14T13:03:40.755Z,21.5
2017-03-14T13:04:48.551Z,21.6
2017-03-14T13:05:56.643Z,21.6
2017-03-14T13:07:04.729Z,21.5
2017-03-14T13:08:12.812Z,21.6
2017-03-14T13:09:20.902Z,21.4
2017-03-14T13:10:28.989Z,21.5
2017-03-14T13:11:37.077Z,21.5
2017-03-14T13:12:45.157Z,21.5
2017-03-14T13:13:53.250Z,21.5
2017-03-14T13:15:01.372Z,21.4
2017-03-14T13:16:09.482Z,21.5
2017-03-14T13:17:17.517Z,21.4
2017-03-14T13:18:25.605Z,21.4
2017-03-14T13:19:33.687Z,21.5
2017-03-14T13:20:41.777Z,21.4
2017-03-14T13:21:50.183Z,21.4
2017-03-14T13:22:58.180Z,21.4
2017-03-14T13:24:06.288Z,21.4
2017-03-14T13:25:14.124Z,21.4
2017-03-14T13:26:22.212Z,21.4
2017-03-14T13:27:30.297Z,21.4
2017-03-14T13:28:38.380Z,21.3
2017-03-14T13:29:46.472Z,21.4
2017-03-14T13:30:54.553Z,21.4
2017-03-14T13:32:02.644Z,21.3
2017-03-14T13:33:11.044Z,21.4
2017-03-14T13:34:18.823Z,21.3
2017-03-14T13:35:27.184Z,21.4
2017-03-14T13:36:34.996Z,21.3
2017-03-14T13:37:43.085Z,21.4
2017-03-14T13:38:51.172Z,21.4
2017-03-14T13:39:59.253Z,21.3
2017-03-14T13:41:07.346Z,21.3
2017-03-14T13:42:15.431Z,21.3
2017-03-14T13:43:23.764Z,21.4
2017-03-14T13:44:31.599Z,21.3
2017-03-14T13:45:39.690Z,21.3
2017-03-14T13:46:47.778Z,21.3
2017-03-14T13:47:55.859Z,21.3
2017-03-14T13:49:03.951Z,21.2
2017-03-14T13:50:12.039Z,21.2
2017-03-14T13:51:20.128Z,21.2
2017-03-14T13:52:28.208Z,21.3
2017-03-14T13:53:36.298Z,21.3
2017-03-14T13:54:44.381Z,21.3
2017-03-14T13:55:52.464Z,21.3
2017-03-14T13:57:00.553Z,21.2
2017-03-14T13:58:08.638Z,21.3
2017-03-14T13:59:16.731Z,21.2
2017-03-14T14:00:24.819Z,21.3
2017-03-14T14:01:32.903Z,21.3
2017-03-14T14:02:40.990Z,21.3
2017-03-14T14:03:49.072Z,21.3
2017-03-14T14:04:57.161Z,21.2
2017-03-14T14:06:05.250Z,21.2
2017-03-14T14:07:13.333Z,21.2
2017-03-14T14:08:21.418Z,21.2
2017-03-14T14:09:29.509Z,21.3
2017-03-14T14:10:37.598Z,21.1
2017-03-14T14:11:45.680Z,21.1
2017-03-14T14:12:53.771Z,21.2
2017-03-14T14:14:01.859Z,21.2
2017-03-14T14:15:09.946Z,21.2
2017-03-14T14:16:18.032Z,21.2
2017-03-14T14:17:26.115Z,21.1
2017-03-14T14:18:34.200Z,21.2
2017-03-14T14:19:42.296Z,21.1
2017-03-14T14:20:50.384Z,21.2
2017-03-14T14:21:58.477Z,21.2
2017-03-14T14:23:06.568Z,21.1
2017-03-14T14:24:14.653Z,21.1
2017-03-14T14:25:22.740Z,21.2
2017-03-14T14:26:30.850Z,21.2
2017-03-14T14:27:38.911Z,21.2
2017-03-14T14:28:47.005Z,21.1
2017-03-14T14:29:55.091Z,21.2
2017-03-14T14:31:03.172Z,21.2
2017-03-14T14:32:11.260Z,21.1
2017-03-14T14:33:19.345Z,21.2
2017-03-14T14:34:27.436Z,21.1
2017-03-14T14:35:35.516Z,21.2
2017-03-14T14:36:43.604Z,21.2
2017-03-14T14:37:51.691Z,21.2
2017-03-14T14:38:59.773Z,21.2
2017-03-14T14:40:07.864Z,21.2
2017-03-14T14:41:15.951Z,21.2
2017-03-14T14:42:24.037Z,21.2
2017-03-14T14:43:32.120Z,21.1
2017-03-14T14:44:40.209Z,21.1
2017-03-14T14:45:48.296Z,21.1
2017-03-14T14:46:56.391Z,21.1
2017-03-14T14:48:04.481Z,21.2
2017-03-14T14:49:12.568Z,21.0
2017-03-14T14:50:20.654Z,21.2
2017-03-14T14:51:28.742Z,21.1
2017-03-14T14:52:36.830Z,21.1
2017-03-14T14:53:44.915Z,21.1
2017-03-14T14:54:53.002Z,21.0
2017-03-14T14:56:01.092Z,21.1
2017-03-14T14:57:09.187Z,21.1
2017-03-14T14:58:17.267Z,21.1
2017-03-14T14:59:25.352Z,21.1
2017-03-14T15:00:33.448Z,21.1
2017-03-14T15:01:41.530Z,21.1
2017-03-14T15:02:49.612Z,21.1
2017-03-14T15:03:57.701Z,21.1
2017-03-14T15:05:05.795Z,21.1
2017-03-14T15:06:13.875Z,21.0
2017-03-14T15:07:21.959Z,21.0